Time;durP1;ratioP1;P1;durP2;ratioP2;P2;SDS_P1;SDS_P2;PMS_P1;PMS_P2;Temp;Humidity;BMP_temperature;BMP_pressure;BME280_temperature;BME280_humidity;BME280_pressure;Samples;Min_cycle;Max_cycle;Signal;HPM_P1;HPM_P2
2021/03/14 00:01:14;;;;;;;46.42;24.05;;;;;;;1.02;87.89;94943.69;5090285;28;20039;-69
2021/03/14 00:03:41;;;;;;;48.30;27.27;;;;;;;0.97;88.12;94935.69;5107147;28;20038;-69
2021/03/14 00:06:08;;;;;;;44.75;26.42;;;;;;;0.93;89.25;94933.44;5088697;28;20043;-69
2021/03/14 00:08:34;;;;;;;73.60;31.23;;;;;;;0.80;92.02;94940.91;5107154;28;20043;-69
2021/03/14 00:11:06;;;;;;;125.05;46.92;;;;;;;0.89;92.15;94931.41;5106204;28;20575;-69
2021/03/14 00:13:35;;;;;;;84.22;36.33;;;;;;;0.91;91.94;94932.81;5105728;28;20050;-69
2021/03/14 00:16:04;;;;;;;92.07;39.53;;;;;;;0.79;94.31;94926.47;5086987;28;20040;-70
2021/03/14 00:18:36;;;;;;;70.95;35.95;;;;;;;0.88;94.74;94927.22;5106972;28;20044;-69
2021/03/14 00:21:04;;;;;;;77.25;36.08;;;;;;;0.73;94.43;94919.47;5106742;28;20043;-69
2021/03/14 00:23:30;;;;;;;72.68;37.05;;;;;;;0.93;94.26;94930.09;5106746;28;20111;-69
2021/03/14 00:25:57;;;;;;;91.82;42.10;;;;;;;0.54;96.36;94931.72;5106719;28;20051;-69
2021/03/14 00:28:24;;;;;;;86.63;41.83;;;;;;;0.62;95.99;94922.41;5105857;28;20039;-69
2021/03/14 00:30:52;;;;;;;68.32;34.50;;;;;;;0.81;95.14;94922.00;5106612;27;20124;-69
2021/03/14 00:33:19;;;;;;;70.68;37.55;;;;;;;0.40;95.65;94914.47;5106730;27;20075;-69
2021/03/14 00:35:46;;;;;;;67.70;34.97;;;;;;;0.51;95.64;94911.53;5106983;28;20570;-69
2021/03/14 00:38:12;;;;;;;67.13;34.33;;;;;;;0.62;95.79;94907.03;5106223;28;20044;-69
2021/03/14 00:40:39;;;;;;;55.83;30.30;;;;;;;0.67;94.99;94909.88;5106258;28;20054;-69
2021/03/14 00:43:06;;;;;;;54.88;28.73;;;;;;;0.68;94.20;94902.00;5088246;28;20567;-69
2021/03/14 00:45:35;;;;;;;54.70;29.50;;;;;;;0.72;92.86;94892.22;5106448;28;20047;-69
2021/03/14 00:48:04;;;;;;;59.05;27.90;;;;;;;0.72;92.23;94897.34;5086912;28;20097;-69
2021/03/14 00:50:39;;;;;;;61.63;29.63;;;;;;;0.65;92.16;94897.22;5087548;28;20054;-69
2021/03/14 00:53:10;;;;;;;53.35;26.02;;;;;;;0.72;91.58;94889.66;5089237;28;20467;-69
2021/03/14 00:55:41;;;;;;;41.22;24.70;;;;;;;0.66;91.26;94891.13;5088162;28;20560;-69
2021/03/14 00:58:08;;;;;;;51.85;28.33;;;;;;;0.63;90.57;94895.78;5107744;27;20066;-69
2021/03/14 01:00:35;;;;;;;39.70;25.30;;;;;;;0.47;91.11;94881.28;5087596;28;20070;-69
2021/03/14 01:03:01;;;;;;;39.97;24.20;;;;;;;0.42;91.10;94889.47;5106037;28;20601;-69
2021/03/14 01:05:35;;;;;;;45.50;25.20;;;;;;;0.48;91.23;94896.50;5087832;27;20043;-69
2021/03/14 01:08:02;;;;;;;40.22;23.85;;;;;;;0.37;91.71;94881.50;5106078;28;20721;-69
2021/03/14 01:10:29;;;;;;;49.50;27.77;;;;;;;0.43;92.39;94892.84;5088913;28;20072;-70
2021/03/14 01:12:56;;;;;;;44.53;26.38;;;;;;;0.45;92.61;94891.72;5105961;28;20043;-69
2021/03/14 01:15:25;;;;;;;42.15;26.67;;;;;;;0.46;92.95;94884.81;5086414;28;20051;-69
2021/03/14 01:17:56;;;;;;;46.80;27.73;;;;;;;0.42;92.87;94881.78;5086366;28;20048;-69
2021/03/14 01:20:22;;;;;;;48.15;29.38;;;;;;;0.43;93.47;94878.25;5105319;28;20120;-69
2021/03/14 01:22:50;;;;;;;48.03;28.15;;;;;;;0.49;94.00;94876.81;5105409;28;20079;-69
2021/03/14 01:25:17;;;;;;;43.35;25.50;;;;;;;0.53;93.88;94873.72;5107498;28;20059;-68
2021/03/14 01:27:46;;;;;;;46.47;27.35;;;;;;;0.59;93.44;94876.59;5103934;28;20040;-69
2021/03/14 01:30:15;;;;;;;44.90;25.50;;;;;;;0.60;93.23;94873.88;5104775;28;20448;-69
2021/03/14 01:32:43;;;;;;;43.95;26.17;;;;;;;0.57;92.52;94869.84;5104984;28;20145;-69
2021/03/14 01:35:11;;;;;;;46.95;27.83;;;;;;;0.51;92.67;94874.88;5087805;28;20048;-69
2021/03/14 01:37:37;;;;;;;48.17;28.20;;;;;;;0.47;93.29;94884.66;5105472;28;20427;-69
2021/03/14 01:40:05;;;;;;;57.22;29.58;;;;;;;0.50;93.34;94881.75;5105660;28;20131;-69
2021/03/14 01:42:33;;;;;;;55.25;29.48;;;;;;;0.51;93.06;94880.78;5105478;28;20039;-69
2021/03/14 01:44:59;;;;;;;43.13;26.40;;;;;;;0.52;92.54;94869.59;5104535;28;20035;-69
2021/03/14 01:47:36;;;;;;;52.78;26.65;;;;;;;0.55;92.12;94876.91;5106006;28;20400;-69
2021/03/14 01:50:09;;;;;;;47.10;27.38;;;;;;;0.37;92.91;94878.94;5104364;28;20116;-69
2021/03/14 01:52:36;;;;;;;48.95;28.17;;;;;;;0.27;93.72;94878.31;5105575;28;20140;-69
2021/03/14 01:55:06;;;;;;;44.45;25.27;;;;;;;0.28;93.55;94869.69;5105821;28;20489;-69
2021/03/14 01:57:33;;;;;;;45.75;25.65;;;;;;;0.26;92.58;94869.03;5086912;28;20050;-69
2021/03/14 02:00:00;;;;;;;47.75;25.00;;;;;;;0.00;94.44;94888.03;5086976;28;20044;-69
2021/03/14 02:02:37;;;;;;;43.58;24.98;;;;;;;0.10;93.93;94878.38;5104743;28;20043;-69
2021/03/14 02:05:06;;;;;;;39.72;23.40;;;;;;;0.18;93.22;94888.59;5105608;28;20394;-69
2021/03/14 02:07:33;;;;;;;102.78;50.08;;;;;;;0.06;93.02;94897.59;5104524;28;20038;-69
2021/03/14 02:10:00;;;;;;;112.85;53.58;;;;;;;-0.09;93.30;94879.56;5105342;28;20040;-68
2021/03/14 02:12:28;;;;;;;47.25;26.42;;;;;;;0.05;92.72;94890.88;5105887;28;20044;-69
2021/03/14 02:14:59;;;;;;;43.88;24.98;;;;;;;0.09;91.78;94887.03;5107105;28;20058;-69
2021/03/14 02:17:29;;;;;;;44.95;24.15;;;;;;;0.02;91.57;94870.72;5084975;28;20061;-69
2021/03/14 02:20:06;;;;;;;46.20;22.98;;;;;;;0.10;91.12;94880.13;5104234;28;20074;-69
2021/03/14 02:22:33;;;;;;;37.00;22.17;;;;;;;0.13;90.00;94879.81;5104302;28;20054;-69
2021/03/14 02:25:02;;;;;;;35.35;20.48;;;;;;;0.10;89.41;94878.38;5105192;28;20136;-68
2021/03/14 02:27:29;;;;;;;40.63;22.58;;;;;;;0.02;89.31;94859.66;5104136;28;20116;-68
2021/03/14 02:29:56;;;;;;;37.75;21.10;;;;;;;0.02;89.08;94864.78;5103631;28;20423;-69
2021/03/14 02:32:24;;;;;;;29.80;20.35;;;;;;;0.04;88.48;94878.22;5105862;27;20115;-69
2021/03/14 02:34:55;;;;;;;32.03;18.13;;;;;;;0.00;88.48;94877.78;5108957;28;20112;-69
2021/03/14 02:37:22;;;;;;;33.50;17.92;;;;;;;-0.06;88.24;94868.19;5107987;27;20063;-69
2021/03/14 02:39:54;;;;;;;26.92;18.95;;;;;;;-0.20;88.81;94857.66;5108794;28;20056;-69
2021/03/14 02:42:23;;;;;;;34.28;18.92;;;;;;;-0.13;88.88;94868.03;5107369;27;20082;-69
2021/03/14 02:44:52;;;;;;;30.38;18.38;;;;;;;-0.09;89.37;94873.63;5108630;28;20047;-69
2021/03/14 02:47:21;;;;;;;35.63;20.80;;;;;;;-0.08;89.71;94877.78;5108414;27;20043;-69
2021/03/14 02:50:04;;;;;;;36.55;19.98;;;;;;;-0.16;90.22;94868.38;5107266;28;20058;-68
2021/03/14 02:52:31;;;;;;;36.78;20.88;;;;;;;-0.27;92.62;94881.47;5108499;28;20115;-69
2021/03/14 02:54:59;;;;;;;36.78;21.13;;;;;;;-0.72;94.76;94883.63;5108115;28;20047;-69
2021/03/14 02:57:25;;;;;;;37.22;21.77;;;;;;;-0.98;96.26;94889.66;5107982;27;20066;-69
2021/03/14 02:59:54;;;;;;;45.92;23.65;;;;;;;-0.93;95.89;94865.38;5107749;28;20408;-69
2021/03/14 03:02:22;;;;;;;45.45;25.33;;;;;;;-0.59;95.99;94883.13;5106686;28;20460;-69
2021/03/14 03:04:49;;;;;;;56.90;30.38;;;;;;;-0.60;97.18;94866.97;5106844;28;20051;-68
2021/03/14 03:07:18;;;;;;;62.70;34.00;;;;;;;-0.59;99.88;94873.69;5109450;27;20039;-69
2021/03/14 03:09:47;;;;;;;52.53;29.88;;;;;;;-0.67;100.00;94871.13;5108028;27;20063;-69
2021/03/14 03:12:15;;;;;;;61.70;32.50;;;;;;;-0.75;100.00;94878.03;5089707;28;20122;-69
2021/03/14 03:14:43;;;;;;;57.33;32.20;;;;;;;-0.53;100.00;94876.56;5107856;28;20063;-69
2021/03/14 03:17:11;;;;;;;58.30;32.35;;;;;;;-0.57;100.00;94870.19;5105850;28;20035;-69
2021/03/14 03:19:39;;;;;;;55.88;30.90;;;;;;;-0.50;100.00;94866.81;5107287;28;20063;-68
2021/03/14 03:22:05;;;;;;;49.08;30.50;;;;;;;-0.42;100.00;94858.31;5106627;28;20058;-69
2021/03/14 03:24:32;;;;;;;55.78;30.13;;;;;;;-0.49;100.00;94842.03;5107150;27;20463;-68
2021/03/14 03:26:58;;;;;;;50.78;28.65;;;;;;;-0.41;100.00;94842.03;5107043;28;20118;-69
2021/03/14 03:29:25;;;;;;;47.53;25.95;;;;;;;-0.34;100.00;94860.88;5106056;27;20552;-69
2021/03/14 03:31:52;;;;;;;37.10;22.50;;;;;;;-0.26;99.82;94863.41;5108006;27;20047;-69
2021/03/14 03:34:18;;;;;;;41.92;23.63;;;;;;;-0.54;100.00;94864.72;5107240;28;20080;-69
2021/03/14 03:36:45;;;;;;;41.28;23.20;;;;;;;-0.56;100.00;94864.09;5089118;28;20040;-69
2021/03/14 03:39:14;;;;;;;44.00;24.75;;;;;;;-0.34;100.00;94860.88;5107430;28;20044;-69
2021/03/14 03:41:54;;;;;;;41.45;23.50;;;;;;;-0.45;99.19;94844.09;5105675;28;20440;-69
2021/03/14 03:44:24;;;;;;;40.75;23.85;;;;;;;-0.64;100.00;94850.34;5106858;28;20424;-69
2021/03/14 03:46:55;;;;;;;45.47;25.17;;;;;;;-0.53;100.00;94840.75;5107221;27;20040;-69
2021/03/14 03:49:25;;;;;;;39.88;25.05;;;;;;;-0.35;100.00;94851.59;5106976;28;20224;-69
2021/03/14 03:51:52;;;;;;;46.90;25.80;;;;;;;-0.29;100.00;94838.16;5109324;27;20432;-69
2021/03/14 03:54:19;;;;;;;43.60;23.45;;;;;;;-0.10;99.17;94851.56;5107266;28;20528;-69
2021/03/14 03:56:50;;;;;;;41.17;24.75;;;;;;;-0.02;98.49;94843.81;5106136;28;20044;-69
2021/03/14 03:59:18;;;;;;;59.15;30.05;;;;;;;0.09;97.62;94848.63;5107175;28;20043;-69
2021/03/14 04:01:46;;;;;;;75.82;37.00;;;;;;;0.10;97.33;94837.41;5107066;27;20047;-69
2021/03/14 04:04:13;;;;;;;91.95;35.22;;;;;;;-0.25;99.34;94834.31;5108662;27;20121;-69
2021/03/14 04:06:42;;;;;;;93.10;42.58;;;;;;;-0.43;100.00;94831.16;5107323;28;20043;-68
2021/03/14 04:09:09;;;;;;;102.30;45.20;;;;;;;-0.31;100.00;94837.50;5105874;28;20038;-69
2021/03/14 04:11:39;;;;;;;83.35;37.90;;;;;;;-0.39;100.00;94837.53;5106938;28;20488;-69
2021/03/14 04:14:08;;;;;;;60.25;29.98;;;;;;;-0.53;100.00;94835.63;5107055;28;20031;-69
2021/03/14 04:16:37;;;;;;;71.22;35.50;;;;;;;-0.62;100.00;94827.97;5106605;28;20035;-70
2021/03/14 04:19:06;;;;;;;59.92;28.60;;;;;;;-0.37;100.00;94830.50;5105506;28;20074;-69
2021/03/14 04:21:33;;;;;;;46.08;24.50;;;;;;;-0.62;100.00;94822.84;5106663;28;20047;-69
2021/03/14 04:24:02;;;;;;;42.47;22.88;;;;;;;-0.50;100.00;94822.53;5106821;28;20069;-69
2021/03/14 04:26:29;;;;;;;39.85;23.20;;;;;;;-0.63;100.00;94818.69;5105206;27;20055;-69
2021/03/14 04:28:58;;;;;;;43.60;23.77;;;;;;;-0.48;100.00;94808.59;5105331;28;20056;-68
2021/03/14 04:31:25;;;;;;;52.20;29.35;;;;;;;-0.34;100.00;94822.50;5106880;28;20455;-69
2021/03/14 04:33:53;;;;;;;50.55;27.63;;;;;;;-0.23;99.94;94817.00;5088928;27;20046;-69
2021/03/14 04:36:20;;;;;;;44.80;23.08;;;;;;;-0.24;99.39;94805.16;5107352;28;20047;-69
2021/03/14 04:38:47;;;;;;;36.58;21.10;;;;;;;-0.13;98.77;94813.47;5106835;28;20043;-69
2021/03/14 04:41:14;;;;;;;46.05;24.10;;;;;;;0.04;97.99;94827.81;5106340;28;20044;-69
2021/03/14 04:43:42;;;;;;;39.00;24.00;;;;;;;0.11;97.33;94826.19;5106317;27;20042;-69
2021/03/14 04:46:12;;;;;;;37.47;21.02;;;;;;;-0.13;98.11;94816.03;5106635;28;20109;-70
2021/03/14 04:48:39;;;;;;;38.40;20.77;;;;;;;-0.20;98.69;94824.38;5106383;28;20894;-70
2021/03/14 04:51:07;;;;;;;37.47;20.80;;;;;;;-0.17;98.85;94819.88;5106422;28;20468;-69
2021/03/14 04:53:35;;;;;;;35.08;20.27;;;;;;;-0.08;98.32;94818.91;5109232;27;20043;-69
2021/03/14 04:56:02;;;;;;;93.55;47.13;;;;;;;-0.02;97.96;94807.97;5105766;28;20046;-69
2021/03/14 04:58:29;;;;;;;80.32;42.67;;;;;;;-0.16;97.74;94790.75;5106160;28;20043;-69
2021/03/14 05:01:00;;;;;;;68.65;35.75;;;;;;;-0.12;97.57;94807.41;5105036;28;20051;-69
2021/03/14 05:03:28;;;;;;;65.30;33.47;;;;;;;0.07;97.38;94817.22;5106004;28;20096;-69
2021/03/14 05:05:55;;;;;;;74.22;44.40;;;;;;;0.10;96.93;94814.34;5107806;28;20040;-69
2021/03/14 05:08:23;;;;;;;63.90;38.38;;;;;;;0.16;95.82;94820.56;5106326;28;20044;-69
2021/03/14 05:10:52;;;;;;;43.20;25.95;;;;;;;0.17;95.58;94822.97;5107389;28;21245;-69
2021/03/14 05:13:18;;;;;;;44.00;29.60;;;;;;;0.23;95.16;94815.56;5104578;28;20035;-69
2021/03/14 05:15:50;;;;;;;91.57;59.17;;;;;;;0.29;94.90;94809.78;5104639;28;20043;-69
2021/03/14 05:18:17;;;;;;;105.53;64.68;;;;;;;0.33;94.16;94816.19;5105887;28;20127;-68
2021/03/14 05:20:43;;;;;;;84.80;52.28;;;;;;;0.34;94.17;94810.06;5087614;28;20405;-69
2021/03/14 05:23:11;;;;;;;82.75;49.10;;;;;;;0.16;95.81;94811.13;5105948;28;20039;-68
2021/03/14 05:25:41;;;;;;;61.28;36.35;;;;;;;0.26;95.31;94815.25;5104437;28;20060;-69
2021/03/14 05:28:08;;;;;;;70.57;37.55;;;;;;;0.33;95.05;94811.06;5105791;28;20035;-69
2021/03/14 05:30:35;;;;;;;63.67;36.22;;;;;;;0.35;94.63;94809.13;5102906;28;20093;-69
2021/03/14 05:33:02;;;;;;;55.47;35.30;;;;;;;0.28;94.55;94803.06;5087397;28;20047;-69
2021/03/14 05:35:30;;;;;;;51.58;32.17;;;;;;;0.42;94.79;94815.16;5107169;28;20437;-69
2021/03/14 05:37:59;;;;;;;56.80;33.20;;;;;;;0.48;94.67;94813.69;5105477;28;20036;-69
2021/03/14 05:40:27;;;;;;;52.38;32.47;;;;;;;0.48;94.94;94804.22;5104604;28;20135;-69
2021/03/14 05:42:54;;;;;;;54.67;34.05;;;;;;;0.62;94.82;94807.84;5107118;28;20051;-69
2021/03/14 05:45:22;;;;;;;61.97;34.40;;;;;;;0.65;95.14;94807.50;5105503;28;20043;-69
2021/03/14 05:47:48;;;;;;;47.90;30.23;;;;;;;0.72;95.27;94810.19;5105633;28;20497;-69
2021/03/14 05:50:19;;;;;;;42.22;28.00;;;;;;;0.79;95.39;94805.19;5105736;28;20059;-69
2021/03/14 05:52:47;;;;;;;54.42;33.30;;;;;;;0.88;95.44;94804.16;5105510;28;20471;-69
2021/03/14 05:55:19;;;;;;;52.20;31.50;;;;;;;0.94;95.73;94814.53;5105494;28;20447;-69
2021/03/14 05:57:47;;;;;;;48.75;32.15;;;;;;;0.92;95.96;94792.59;5105603;28;20409;-69
2021/03/14 06:00:23;;;;;;;44.75;29.35;;;;;;;1.07;96.16;94808.03;5104099;28;20035;-69
2021/03/14 06:02:57;;;;;;;58.88;36.03;;;;;;;1.12;96.94;94810.88;5104472;28;20500;-69
2021/03/14 06:05:26;;;;;;;49.30;32.30;;;;;;;1.17;97.90;94818.84;5105493;28;20051;-69
2021/03/14 06:07:54;;;;;;;59.13;33.72;;;;;;;1.27;98.01;94809.13;5105580;28;20047;-69
2021/03/14 06:10:21;;;;;;;57.80;34.30;;;;;;;1.28;98.05;94789.44;5109122;28;20053;-70
2021/03/14 06:12:48;;;;;;;58.75;33.65;;;;;;;1.48;97.77;94807.69;5109111;28;20043;-69
2021/03/14 06:15:15;;;;;;;53.25;33.22;;;;;;;1.60;97.73;94803.69;5110297;27;20043;-69
2021/03/14 06:17:42;;;;;;;54.88;32.97;;;;;;;1.67;97.58;94799.44;5109284;27;20035;-70
2021/03/14 06:20:30;;;;;;;56.25;35.25;;;;;;;1.82;97.48;94801.22;5108749;28;20036;-70
2021/03/14 06:23:14;;;;;;;57.45;34.25;;;;;;;1.82;98.82;94796.09;5107723;28;20039;-69
2021/03/14 06:25:42;;;;;;;58.67;36.37;;;;;;;1.92;98.73;94796.63;5091230;28;20445;-69
2021/03/14 06:28:09;;;;;;;59.67;35.88;;;;;;;2.09;98.94;94802.41;5108017;28;20040;-70
2021/03/14 06:30:40;;;;;;;63.35;36.80;;;;;;;2.22;99.07;94812.03;5087036;27;20040;-69
2021/03/14 06:33:08;;;;;;;56.72;36.08;;;;;;;2.29;99.10;94802.63;5108055;27;20043;-69
2021/03/14 06:35:45;;;;;;;53.05;33.60;;;;;;;2.42;98.64;94807.91;5108410;27;20045;-70
2021/03/14 06:38:22;;;;;;;65.80;40.22;;;;;;;2.56;98.20;94818.38;5109288;27;20046;-70
2021/03/14 06:40:52;;;;;;;64.90;40.03;;;;;;;2.67;97.29;94810.16;5107623;28;20536;-69
2021/03/14 06:43:18;;;;;;;73.80;40.33;;;;;;;2.83;97.63;94802.22;5108039;27;20073;-69
2021/03/14 06:45:45;;;;;;;67.53;41.30;;;;;;;2.92;97.32;94802.91;5110046;27;20050;-69
2021/03/14 06:48:23;;;;;;;64.65;38.92;;;;;;;3.00;96.89;94804.53;5107454;27;20057;-69
2021/03/14 06:50:49;;;;;;;58.90;36.92;;;;;;;3.10;96.53;94799.91;5107209;27;20056;-70
2021/03/14 06:53:18;;;;;;;55.63;32.72;;;;;;;3.24;96.15;94801.59;5108664;28;20032;-69
2021/03/14 06:55:49;;;;;;;53.80;32.55;;;;;;;3.30;95.70;94794.13;5107820;27;20043;-70
2021/03/14 06:58:26;;;;;;;61.25;33.15;;;;;;;3.44;95.98;94795.81;5108785;28;20044;-69
2021/03/14 07:01:17;;;;;;;49.35;31.05;;;;;;;3.57;95.73;94790.75;5107549;27;20036;-69
2021/03/14 07:03:55;;;;;;;47.72;31.45;;;;;;;3.82;95.41;94792.88;5107605;28;20501;-70
2021/03/14 07:06:25;;;;;;;45.90;28.98;;;;;;;3.97;94.85;94790.97;5107644;28;20050;-70
2021/03/14 07:08:59;;;;;;;48.90;28.75;;;;;;;4.04;94.66;94792.81;5108197;28;20412;-70
2021/03/14 07:11:39;;;;;;;46.13;28.48;;;;;;;4.16;94.50;94794.66;5107567;28;20063;-71
2021/03/14 07:14:10;;;;;;;44.08;26.88;;;;;;;4.36;94.12;94799.88;5106735;27;20040;-71
2021/03/14 07:16:56;;;;;;;48.05;28.60;;;;;;;4.50;92.94;94789.59;5103987;27;20043;-72
2021/03/14 07:19:28;;;;;;;44.97;28.38;;;;;;;4.59;92.16;94772.94;5106698;28;20470;-71
2021/03/14 07:22:05;;;;;;;53.28;30.75;;;;;;;4.82;91.53;94787.31;5107492;27;20131;-71
2021/03/14 07:24:40;;;;;;;54.35;32.70;;;;;;;5.02;91.03;94782.97;5089477;28;20051;-71
2021/03/14 07:27:11;;;;;;;49.30;29.73;;;;;;;5.09;90.09;94788.94;5090192;28;20050;-71
2021/03/14 07:29:40;;;;;;;55.47;33.88;;;;;;;5.28;90.26;94781.41;5105394;27;20432;-71
2021/03/14 07:32:08;;;;;;;47.85;30.52;;;;;;;5.44;89.57;94781.00;5107581;27;20421;-70
2021/03/14 07:34:35;;;;;;;51.53;32.30;;;;;;;5.44;89.48;94775.84;5105874;28;20138;-70
2021/03/14 07:37:03;;;;;;;63.20;34.22;;;;;;;5.46;89.85;94767.88;5106100;28;20042;-70
2021/03/14 07:39:29;;;;;;;55.17;33.55;;;;;;;5.59;89.76;94777.41;5108013;27;20043;-70
2021/03/14 07:41:57;;;;;;;57.88;34.05;;;;;;;5.74;88.35;94767.63;5106767;27;20043;-69
2021/03/14 07:44:25;;;;;;;53.42;34.33;;;;;;;5.84;88.48;94765.44;5101411;27;20046;-71
2021/03/14 07:46:53;;;;;;;50.85;31.80;;;;;;;5.94;87.66;94760.66;5099851;27;20056;-70
2021/03/14 07:49:23;;;;;;;52.22;33.03;;;;;;;6.03;87.29;94757.84;5106239;27;20529;-69
2021/03/14 07:51:59;;;;;;;54.78;32.58;;;;;;;6.19;87.16;94761.78;5103124;27;20039;-70
2021/03/14 07:54:31;;;;;;;56.95;32.78;;;;;;;6.44;86.93;94760.06;5104792;27;20054;-70
2021/03/14 07:57:00;;;;;;;56.65;35.00;;;;;;;6.63;85.50;94748.03;5104674;27;20047;-70
2021/03/14 07:59:31;;;;;;;53.40;33.42;;;;;;;6.99;84.88;94743.25;5094597;27;20047;-70
2021/03/14 08:02:16;;;;;;;50.35;31.65;;;;;;;7.20;83.36;94742.06;5103711;27;20119;-71
2021/03/14 08:04:50;;;;;;;57.05;33.45;;;;;;;7.28;81.53;94728.88;5103683;27;20044;-71
2021/03/14 08:07:32;;;;;;;48.95;31.15;;;;;;;7.35;82.23;94724.44;5102617;27;20048;-71
2021/03/14 08:09:59;;;;;;;55.15;35.33;;;;;;;7.51;81.72;94732.66;5102340;27;20047;-71
2021/03/14 08:12:33;;;;;;;58.30;33.45;;;;;;;7.59;81.61;94727.19;5101244;27;20079;-71
2021/03/14 08:15:01;;;;;;;62.10;37.08;;;;;;;7.72;80.45;94724.47;5108349;27;20486;-71
2021/03/14 08:17:36;;;;;;;60.97;34.97;;;;;;;7.82;80.35;94714.41;5100502;27;20524;-71
2021/03/14 08:20:04;;;;;;;47.10;31.08;;;;;;;8.12;80.29;94711.06;5107174;27;20408;-71
2021/03/14 08:22:36;;;;;;;50.00;33.35;;;;;;;8.30;79.09;94709.44;5085977;28;20043;-71
2021/03/14 08:25:24;;;;;;;51.67;34.47;;;;;;;8.49;78.56;94703.25;5069688;27;20136;-71
2021/03/14 08:27:57;;;;;;;63.95;35.10;;;;;;;8.47;77.49;94694.88;5087728;28;20120;-71
2021/03/14 08:30:29;;;;;;;61.88;35.30;;;;;;;8.65;77.39;94706.25;5104054;28;20179;-71
2021/03/14 08:33:22;;;;;;;57.50;35.45;;;;;;;8.78;76.93;94708.63;5107058;28;20070;-70
2021/03/14 08:36:06;;;;;;;62.55;36.78;;;;;;;8.89;76.85;94707.06;5088892;28;20035;-70
2021/03/14 08:38:40;;;;;;;65.68;39.17;;;;;;;9.09;77.20;94706.75;5086979;28;21685;-71
2021/03/14 08:41:20;;;;;;;63.83;40.15;;;;;;;9.29;77.21;94691.66;5089410;28;20462;-71
2021/03/14 08:43:53;;;;;;;62.58;35.47;;;;;;;9.52;74.27;94700.47;5089306;28;20060;-70
2021/03/14 08:46:51;;;;;;;57.28;34.22;;;;;;;9.58;74.93;94694.38;5087869;28;20047;-70
2021/03/14 08:49:23;;;;;;;58.60;37.28;;;;;;;9.61;74.04;94683.50;5085306;28;20466;-70
2021/03/14 08:51:51;;;;;;;52.92;34.13;;;;;;;9.73;73.64;94689.47;5103389;28;20912;-70
2021/03/14 08:55:03;;;;;;;59.83;36.80;;;;;;;9.90;72.05;94691.38;5086668;27;20134;-70
2021/03/14 08:57:34;;;;;;;56.35;36.75;;;;;;;9.81;72.80;94684.94;5087909;27;20039;-72
2021/03/14 09:00:05;;;;;;;56.08;38.05;;;;;;;10.06;73.02;94684.66;5087348;28;20040;-71
2021/03/14 09:02:38;;;;;;;54.80;34.72;;;;;;;10.31;70.91;94682.56;5088231;28;20040;-71
2021/03/14 09:05:15;;;;;;;56.45;36.63;;;;;;;10.58;69.02;94686.41;5074159;28;20105;-70
2021/03/14 09:07:59;;;;;;;51.05;33.88;;;;;;;10.79;68.39;94667.50;5107401;28;20493;-71
2021/03/14 09:10:35;;;;;;;49.65;32.20;;;;;;;11.05;67.13;94680.94;5107293;27;20040;-71
2021/03/14 09:13:12;;;;;;;54.03;34.25;;;;;;;11.13;67.32;94654.50;5106502;27;20515;-71
2021/03/14 09:15:52;;;;;;;49.03;31.40;;;;;;;11.48;66.02;94666.44;5087080;28;20036;-71
2021/03/14 09:18:28;;;;;;;56.00;33.80;;;;;;;11.58;65.42;94666.59;5088371;28;20478;-71
2021/03/14 09:21:03;;;;;;;48.70;30.70;;;;;;;11.84;65.05;94656.47;5088696;28;20478;-71
2021/03/14 09:23:42;;;;;;;46.17;30.20;;;;;;;12.20;63.21;94662.13;5088346;28;20071;-71
2021/03/14 09:26:26;;;;;;;42.10;27.65;;;;;;;12.51;62.79;94655.38;5088229;28;20048;-70
2021/03/14 09:28:54;;;;;;;55.20;35.45;;;;;;;12.59;61.67;94656.78;5102310;28;20035;-70
2021/03/14 09:31:20;;;;;;;41.58;27.38;;;;;;;12.93;60.09;94661.78;5100202;28;20780;-70
2021/03/14 09:33:55;;;;;;;40.63;27.17;;;;;;;12.95;59.24;94664.94;5086565;28;20039;-70
2021/03/14 09:36:26;;;;;;;38.50;23.23;;;;;;;13.17;57.21;94663.00;5105612;28;20128;-70
2021/03/14 09:38:59;;;;;;;31.77;20.52;;;;;;;13.33;56.49;94650.84;5089281;28;20044;-70
2021/03/14 09:41:58;;;;;;;21.17;14.60;;;;;;;13.76;53.38;94642.97;5097614;27;20036;-71
2021/03/14 09:44:44;;;;;;;26.05;18.02;;;;;;;14.20;51.90;94642.59;5110234;28;20131;-71
2021/03/14 09:47:19;;;;;;;34.15;18.80;;;;;;;14.66;51.95;94640.13;5088565;27;20047;-68
2021/03/14 09:50:15;;;;;;;27.38;17.55;;;;;;;14.92;49.97;94627.00;5090537;28;20133;-68
2021/03/14 09:52:47;;;;;;;21.90;15.55;;;;;;;15.04;49.57;94634.63;5085998;28;20074;-68
2021/03/14 09:55:34;;;;;;;23.50;15.35;;;;;;;15.41;48.48;94634.31;5093488;28;20540;-69
2021/03/14 09:58:01;;;;;;;26.33;15.68;;;;;;;15.46;47.43;94628.25;5090884;28;20046;-68
2021/03/14 10:00:30;;;;;;;22.13;15.32;;;;;;;15.41;48.37;94623.81;5110465;28;20047;-68
2021/03/14 10:03:07;;;;;;;17.60;12.18;;;;;;;15.64;45.23;94632.94;5089650;28;20626;-69
2021/03/14 10:05:54;;;;;;;23.30;14.65;;;;;;;15.76;45.15;94626.66;5090070;28;20126;-68
2021/03/14 10:08:30;;;;;;;16.30;11.63;;;;;;;16.16;44.34;94633.56;5091891;28;20131;-69
2021/03/14 10:11:03;;;;;;;15.63;7.97;;;;;;;16.07;42.60;94627.28;5091859;28;20048;-69
2021/03/14 10:13:32;;;;;;;14.27;7.15;;;;;;;16.24;40.83;94622.50;5090442;28;20047;-69
2021/03/14 10:16:03;;;;;;;10.70;6.90;;;;;;;16.76;40.74;94619.53;5091598;28;20924;-70
2021/03/14 10:18:31;;;;;;;9.10;5.88;;;;;;;17.19;37.55;94617.09;5091240;28;20044;-69
2021/03/14 10:21:19;;;;;;;9.57;6.57;;;;;;;17.26;38.01;94617.56;5091930;28;20043;-70
2021/03/14 10:24:15;;;;;;;14.82;10.57;;;;;;;17.72;36.27;94611.81;5091666;28;20047;-69
2021/03/14 10:26:59;;;;;;;36.75;29.33;;;;;;;18.20;35.36;94612.84;5092677;28;20145;-69
2021/03/14 10:29:39;;;;;;;9.65;6.10;;;;;;;18.46;34.19;94600.91;5089894;28;20047;-70
2021/03/14 10:32:30;;;;;;;12.63;6.40;;;;;;;18.95;33.96;94600.72;5104714;27;20401;-69
2021/03/14 10:35:03;;;;;;;10.48;6.45;;;;;;;19.06;33.32;94596.84;5107867;27;20051;-70
2021/03/14 10:37:35;;;;;;;;;;;;;;;19.53;34.20;94594.94;5105232;27;20043;-70
2021/03/14 10:40:15;;;;;;;11.05;8.60;;;;;;;18.15;37.42;94590.78;5087638;28;19942;-71
2021/03/14 10:42:47;;;;;;;14.73;9.88;;;;;;;19.22;34.20;94579.66;5089047;28;20044;-70
2021/03/14 10:45:23;;;;;;;16.38;10.13;;;;;;;19.12;33.36;94579.06;5090016;28;20097;-70
2021/03/14 10:48:05;;;;;;;8.32;4.93;;;;;;;19.33;31.35;94574.19;5092108;27;20044;-71
2021/03/14 10:50:43;;;;;;;8.95;5.18;;;;;;;19.75;30.52;94565.22;5092334;28;20105;-71
2021/03/14 10:53:16;;;;;;;11.43;6.68;;;;;;;19.87;30.03;94556.81;5093302;28;20061;-70
2021/03/14 10:56:09;;;;;;;12.90;6.88;;;;;;;20.22;29.53;94557.91;5090705;28;20050;-72
2021/03/14 10:58:42;;;;;;;10.27;5.32;;;;;;;20.32;28.40;94551.59;5091960;28;20070;-71
2021/03/14 11:01:31;;;;;;;11.30;4.47;;;;;;;20.58;27.83;94543.06;5094671;28;20053;-72
2021/03/14 11:04:05;;;;;;;5.55;3.42;;;;;;;20.93;27.26;94543.34;5094810;27;20058;-71
2021/03/14 11:06:34;;;;;;;;;;;;;;;20.81;27.05;94542.03;5091911;28;20043;-72
2021/03/14 11:09:09;;;;;;;8.13;4.20;;;;;;;21.09;27.22;94531.28;5093274;28;19928;-71
2021/03/14 11:11:45;;;;;;;12.13;5.18;;;;;;;21.33;26.86;94519.53;5091951;28;20138;-71
2021/03/14 11:14:38;;;;;;;6.03;4.63;;;;;;;21.37;26.76;94510.69;5074370;28;20055;-71
2021/03/14 11:17:38;;;;;;;8.63;4.40;;;;;;;21.17;27.11;94516.50;5085809;27;20059;-71
2021/03/14 11:20:29;;;;;;;4.57;2.90;;;;;;;21.20;25.50;94510.59;5109184;27;20050;-72
2021/03/14 11:23:09;;;;;;;7.55;3.10;;;;;;;20.60;26.65;94498.59;5082165;28;20043;-72
2021/03/14 11:25:35;;;;;;;6.10;3.92;;;;;;;20.87;27.66;94507.47;5090399;28;20492;-71
2021/03/14 11:28:08;;;;;;;16.58;14.80;;;;;;;20.77;27.18;94485.47;5093411;27;20114;-72
2021/03/14 11:30:37;;;;;;;;;;;;;;;21.42;26.69;94495.72;5090252;28;20044;-71
2021/03/14 11:33:04;;;;;;;5.25;3.90;;;;;;;21.93;25.41;94489.78;5091061;28;20011;-71
2021/03/14 11:35:37;;;;;;;8.63;4.30;;;;;;;21.79;24.14;94486.50;5093043;27;20760;-71
2021/03/14 11:38:33;;;;;;;6.05;3.50;;;;;;;20.90;26.56;94470.59;5089941;27;20039;-71
2021/03/14 11:41:25;;;;;;;7.35;3.63;;;;;;;21.60;25.79;94476.16;5085125;28;20055;-71
2021/03/14 11:44:10;;;;;;;9.15;4.70;;;;;;;21.96;24.87;94470.56;5109154;27;20051;-71
2021/03/14 11:46:38;;;;;;;6.35;3.60;;;;;;;22.14;24.09;94462.63;5109395;27;20063;-71